createdAt,value
2023-10-16T00:04:21.570Z,100.00
2023-10-16T00:09:26.912Z,100.00
2023-10-16T00:14:32.113Z,100.00
2023-10-16T00:19:34.406Z,100.00
2023-10-16T00:24:38.459Z,100.00
2023-10-16T00:29:42.747Z,100.00
2023-10-16T00:34:45.887Z,100.00
2023-10-16T00:39:50.275Z,100.00
2023-10-16T00:44:57.122Z,100.00
2023-10-16T00:50:03.775Z,100.00
2023-10-16T00:55:12.209Z,100.00
2023-10-16T01:00:15.146Z,100.00
2023-10-16T01:05:24.836Z,100.00
2023-10-16T01:10:28.294Z,100.00
2023-10-16T01:15:30.407Z,100.00
2023-10-16T01:20:32.451Z,100.00
2023-10-16T01:25:35.799Z,100.00
2023-10-16T01:44:32.997Z,100.00
2023-10-16T01:49:34.967Z,100.00
2023-10-16T01:54:39.238Z,100.00
2023-10-16T01:59:44.337Z,100.00
2023-10-16T02:04:46.525Z,100.00
2023-10-16T02:09:49.006Z,100.00
2023-10-16T02:14:52.365Z,100.00
2023-10-16T02:19:54.364Z,100.00
2023-10-16T02:31:53.792Z,100.00
2023-10-16T02:36:55.958Z,100.00
2023-10-16T02:42:00.662Z,100.00
2023-10-16T02:47:06.676Z,100.00
2023-10-16T02:52:08.723Z,100.00
2023-10-16T02:57:11.540Z,100.00
2023-10-16T03:02:24.141Z,100.00
2023-10-16T03:07:26.454Z,100.00
2023-10-16T03:12:28.640Z,100.00
2023-10-16T03:17:32.088Z,100.00
2023-10-16T03:22:34.212Z,100.00
2023-10-16T03:27:36.265Z,100.00
2023-10-16T03:32:39.674Z,100.00
2023-10-16T03:37:41.699Z,100.00
2023-10-16T03:42:45.230Z,100.00
2023-10-16T03:47:52.847Z,100.00
2023-10-16T03:52:57.857Z,100.00
2023-10-16T03:58:00.108Z,100.00
2023-10-16T04:03:08.282Z,100.00
2023-10-16T04:08:11.740Z,100.00
2023-10-16T04:13:15.565Z,100.00
2023-10-16T04:18:28.384Z,100.00
2023-10-16T04:23:46.652Z,100.00
2023-10-16T04:29:07.265Z,100.00
2023-10-16T04:34:37.008Z,100.00
2023-10-16T04:39:57.692Z,100.00
2023-10-16T04:45:18.172Z,100.00
2023-10-16T04:51:08.314Z,100.00
2023-10-16T04:56:18.130Z,100.00
2023-10-16T05:01:55.442Z,100.00
2023-10-16T05:07:07.866Z,100.00
2023-10-16T05:12:28.501Z,100.00
2023-10-16T05:17:30.542Z,100.00
2023-10-16T05:22:48.952Z,100.00
2023-10-16T05:28:09.639Z,100.00
2023-10-16T05:33:30.067Z,100.00
2023-10-16T05:38:52.300Z,100.00
2023-10-16T05:44:13.622Z,100.00
2023-10-16T05:49:34.594Z,100.00
2023-10-16T05:54:56.723Z,100.00
2023-10-16T06:00:17.771Z,100.00
2023-10-16T06:05:38.680Z,100.00
2023-10-16T06:11:02.261Z,100.00
2023-10-16T06:16:05.032Z,100.00
2023-10-16T06:21:07.319Z,100.00
2023-10-16T06:26:10.998Z,100.00
2023-10-16T06:31:14.534Z,100.00
2023-10-16T06:36:19.070Z,100.00
2023-10-16T06:41:23.544Z,100.00
2023-10-16T06:46:26.418Z,100.00
2023-10-16T06:51:32.137Z,100.00
2023-10-16T06:56:36.401Z,100.00
2023-10-16T07:01:38.854Z,100.00
2023-10-16T07:06:43.375Z,100.00
2023-10-16T07:11:46.811Z,100.00
2023-10-16T07:16:49.592Z,100.00
2023-10-16T07:21:51.686Z,100.00
2023-10-16T07:26:55.035Z,100.00
2023-10-16T07:31:57.040Z,100.00
2023-10-16T07:36:59.544Z,100.00
2023-10-16T07:42:03.571Z,100.00
2023-10-16T07:47:07.306Z,100.00
2023-10-16T07:52:09.446Z,100.00
2023-10-16T07:57:12.805Z,100.00
2023-10-16T08:02:19.217Z,100.00
2023-10-16T08:07:41.232Z,100.00
2023-10-16T08:12:44.500Z,100.00
2023-10-16T08:17:47.100Z,100.00
2023-10-16T08:22:51.572Z,100.00
2023-10-16T08:27:58.477Z,100.00
2023-10-16T08:33:10.896Z,100.00
2023-10-16T08:38:15.761Z,100.00
2023-10-16T08:43:19.344Z,100.00
2023-10-16T08:48:23.120Z,100.00
2023-10-16T08:53:35.218Z,100.00
2023-10-16T08:58:45.578Z,100.00
2023-10-16T09:03:52.133Z,100.00
2023-10-16T09:08:56.141Z,100.00
2023-10-16T09:14:00.969Z,100.00
2023-10-16T09:19:07.949Z,100.00
2023-10-16T09:24:12.948Z,100.00
2023-10-16T09:29:16.402Z,100.00
2023-10-16T09:34:21.600Z,100.00
2023-10-16T09:39:31.342Z,100.00
2023-10-16T09:44:40.707Z,100.00
2023-10-16T09:49:43.603Z,100.00
2023-10-16T09:54:46.957Z,100.00
2023-10-16T10:00:01.751Z,100.00
2023-10-16T10:05:10.922Z,100.00
2023-10-16T10:10:31.465Z,100.00
2023-10-16T10:15:37.333Z,100.00
2023-10-16T10:20:41.858Z,100.00
2023-10-16T10:25:46.321Z,100.00
2023-10-16T10:30:50.838Z,100.00
2023-10-16T10:36:35.570Z,100.00
2023-10-16T10:41:46.816Z,100.00
2023-10-16T10:46:54.706Z,100.00
2023-10-16T10:51:56.965Z,100.00
2023-10-16T10:57:08.691Z,100.00
2023-10-16T11:02:19.918Z,100.00
2023-10-16T11:07:29.747Z,100.00
2023-10-16T11:12:31.900Z,100.00
2023-10-16T11:17:37.057Z,100.00
2023-10-16T11:22:47.972Z,100.00
2023-10-16T11:27:54.796Z,100.00
2023-10-16T11:32:59.128Z,100.00
2023-10-16T11:38:05.407Z,100.00
2023-10-16T11:43:15.350Z,100.00
2023-10-16T11:48:24.680Z,100.00
2023-10-16T11:53:29.626Z,100.00
2023-10-16T11:58:32.441Z,100.00
2023-10-16T12:03:38.822Z,100.00
2023-10-16T12:08:45.825Z,100.00
2023-10-16T12:13:48.241Z,100.00
2023-10-16T12:18:52.949Z,100.00
2023-10-16T12:23:55.055Z,100.00
2023-10-16T12:28:58.290Z,100.00
2023-10-16T12:34:01.764Z,100.00
2023-10-16T12:39:14.416Z,100.00
2023-10-16T12:44:18.210Z,100.00
2023-10-16T12:49:24.597Z,100.00
2023-10-16T12:54:26.968Z,100.00
2023-10-16T12:59:29.421Z,100.00
2023-10-16T13:04:34.703Z,100.00
2023-10-16T13:09:37.052Z,100.00
2023-10-16T13:14:39.148Z,100.00
2023-10-16T13:19:42.501Z,100.00
2023-10-16T13:24:44.576Z,100.00
2023-10-16T13:29:46.925Z,100.00
2023-10-16T13:34:51.811Z,100.00
2023-10-16T13:39:54.042Z,100.00
2023-10-16T13:44:56.097Z,100.00
2023-10-16T13:49:59.479Z,100.00
2023-10-16T13:55:01.505Z,100.00
2023-10-16T14:00:05.070Z,100.00
2023-10-16T14:05:08.804Z,100.00
2023-10-16T14:10:14.554Z,100.00
2023-10-16T14:15:20.919Z,100.00
2023-10-16T14:20:36.935Z,100.00
2023-10-16T14:25:59.006Z,100.00
2023-10-16T14:31:02.863Z,100.00
2023-10-16T14:36:08.501Z,100.00
2023-10-16T14:41:16.591Z,100.00
2023-10-16T14:46:18.851Z,100.00
2023-10-16T14:51:23.316Z,100.00
2023-10-16T14:56:26.347Z,100.00
2023-10-16T15:01:28.944Z,100.00
2023-10-16T15:06:33.019Z,100.00
2023-10-16T15:11:36.256Z,100.00
2023-10-16T15:16:38.379Z,100.00
2023-10-16T15:21:41.984Z,100.00
2023-10-16T15:26:44.108Z,100.00
2023-10-16T15:31:47.153Z,100.00
2023-10-16T15:36:51.022Z,100.00
2023-10-16T15:41:53.265Z,100.00
2023-10-16T15:46:55.496Z,100.00
2023-10-16T15:51:59.013Z,100.00
2023-10-16T15:57:01.217Z,100.00
2023-10-16T16:02:03.328Z,100.00
2023-10-16T16:07:10.090Z,100.00
2023-10-16T16:12:15.222Z,100.00
2023-10-16T16:17:17.362Z,100.00
2023-10-16T16:22:20.867Z,100.00
2023-10-16T16:27:23.166Z,100.00
2023-10-16T16:32:26.607Z,100.00
2023-10-16T16:37:30.228Z,100.00
2023-10-16T16:42:32.248Z,100.00
2023-10-16T16:47:34.274Z,100.00
2023-10-16T16:52:37.626Z,100.00
2023-10-16T16:57:40.470Z,100.00
2023-10-16T17:02:42.751Z,100.00
2023-10-16T17:07:46.348Z,100.00
2023-10-16T17:12:48.688Z,100.00
2023-10-16T17:17:52.810Z,100.00
2023-10-16T17:23:06.055Z,100.00
2023-10-16T17:28:08.641Z,100.00
2023-10-16T17:33:11.864Z,100.00
2023-10-16T17:38:15.586Z,100.00
2023-10-16T17:43:19.919Z,100.00
2023-10-16T17:48:22.171Z,100.00
2023-10-16T17:53:26.469Z,100.00
2023-10-16T17:58:28.762Z,100.00
2023-10-16T18:03:32.824Z,100.00
2023-10-16T18:08:36.480Z,63.87
2023-10-16T18:13:41.937Z,63.60
2023-10-16T18:18:43.987Z,63.24
2023-10-16T18:23:47.418Z,64.27
2023-10-16T18:28:49.460Z,65.00
2023-10-16T18:33:53.462Z,63.42
2023-10-16T18:38:56.941Z,65.91
2023-10-16T18:43:58.953Z,65.17
2023-10-16T18:49:01.128Z,65.14
2023-10-16T18:54:05.062Z,66.54
2023-10-16T18:59:07.925Z,65.55
2023-10-16T19:04:09.920Z,66.35
2023-10-16T19:09:13.483Z,66.18
2023-10-16T19:14:15.696Z,67.08
2023-10-16T19:19:17.771Z,68.73
2023-10-16T19:24:21.283Z,68.30
2023-10-16T19:29:23.351Z,68.41
2023-10-16T19:34:25.676Z,72.09
2023-10-16T19:39:30.145Z,70.96
2023-10-16T19:44:32.241Z,69.46
2023-10-16T19:49:34.313Z,71.30
2023-10-16T19:54:39.172Z,73.72
2023-10-16T19:59:41.192Z,74.04
2023-10-16T20:04:43.293Z,74.61
2023-10-16T20:09:46.972Z,77.53
2023-10-16T20:14:50.125Z,79.59
2023-10-16T20:19:52.800Z,81.11
2023-10-16T20:24:56.429Z,81.15
2023-10-16T20:29:59.114Z,82.61
2023-10-16T20:35:01.797Z,82.92
2023-10-16T20:40:08.365Z,84.20
2023-10-16T20:45:14.450Z,84.26
2023-10-16T20:50:19.628Z,83.83
2023-10-16T20:55:23.822Z,83.98
2023-10-16T21:00:29.149Z,85.32
2023-10-16T21:05:33.822Z,84.87
2023-10-16T21:10:37.635Z,85.08
2023-10-16T21:15:42.706Z,85.04
2023-10-16T21:20:44.783Z,85.21
2023-10-16T21:25:48.192Z,85.38
2023-10-16T21:30:53.935Z,85.52
2023-10-16T21:36:02.666Z,85.91
2023-10-16T21:41:06.545Z,85.85
2023-10-16T21:46:08.659Z,85.88
2023-10-16T21:51:10.741Z,86.43
2023-10-16T21:56:14.110Z,86.63
2023-10-16T22:01:17.750Z,87.19
2023-10-16T22:06:19.993Z,87.59
2023-10-16T22:11:23.360Z,87.34
2023-10-16T22:16:27.002Z,87.53
2023-10-16T22:21:31.497Z,87.87
2023-10-16T22:26:36.364Z,87.42
2023-10-16T22:31:38.971Z,87.39
2023-10-16T22:36:41.257Z,87.04
2023-10-16T22:41:44.654Z,87.24
2023-10-16T22:46:51.097Z,87.74
2023-10-16T22:51:54.226Z,87.80
2023-10-16T22:56:57.632Z,87.18
2023-10-16T23:01:59.732Z,87.87
2023-10-16T23:07:06.798Z,88.10
2023-10-16T23:12:10.628Z,87.83
2023-10-16T23:17:19.179Z,88.57
2023-10-16T23:22:21.606Z,87.57
2023-10-16T23:27:24.993Z,87.83
2023-10-16T23:32:27.028Z,88.30
2023-10-16T23:37:35.171Z,88.48
2023-10-16T23:42:38.526Z,88.50
2023-10-16T23:47:45.832Z,88.59
2023-10-16T23:53:07.910Z,88.31
2023-10-16T23:58:14.233Z,88.41
